Time;durP1;ratioP1;P1;durP2;ratioP2;P2;SDS_P1;SDS_P2;PMS_P1;PMS_P2;Temp;Humidity;BMP_temperature;BMP_pressure;BME280_temperature;BME280_humidity;BME280_pressure;Samples;Min_cycle;Max_cycle;Signal;HPM_P1;HPM_P2
2021/05/27 00:00:10;;;;;;;24.50;10.00;;;11.10;94.20;;;;;;5096141;28;20095;-66
2021/05/27 00:02:35;;;;;;;17.33;10.15;;;11.00;94.00;;;;;;5094979;28;20028;-66
2021/05/27 00:05:01;;;;;;;20.42;10.77;;;11.00;94.00;;;;;;5091885;28;20069;-66
2021/05/27 00:07:27;;;;;;;26.55;12.35;;;11.00;94.10;;;;;;5095767;28;20028;-66
2021/05/27 00:09:52;;;;;;;25.65;12.45;;;10.90;94.10;;;;;;5094465;28;20031;-66
2021/05/27 00:12:18;;;;;;;26.90;12.20;;;10.90;94.20;;;;;;5094062;28;20052;-66
2021/05/27 00:14:44;;;;;;;28.42;12.20;;;10.80;94.30;;;;;;5094878;28;20028;-66
2021/05/27 00:17:09;;;;;;;23.95;11.07;;;10.80;94.40;;;;;;5095814;28;20028;-66
2021/05/27 00:19:35;;;;;;;21.58;11.30;;;10.70;94.50;;;;;;5094123;28;20516;-66
2021/05/27 00:22:01;;;;;;;26.02;11.73;;;10.70;94.50;;;;;;5093151;28;20024;-67
2021/05/27 00:24:27;;;;;;;25.90;12.30;;;10.70;94.50;;;;;;5095825;28;20095;-66
2021/05/27 00:26:52;;;;;;;26.40;12.13;;;10.70;94.50;;;;;;5095550;28;20070;-67
2021/05/27 00:29:18;;;;;;;27.58;11.73;;;10.70;94.50;;;;;;5095593;28;20028;-67
2021/05/27 00:31:43;;;;;;;18.38;11.18;;;10.70;94.50;;;;;;5095198;28;20020;-67
2021/05/27 00:34:09;;;;;;;26.35;11.57;;;10.70;94.50;;;;;;5093554;28;20474;-67
2021/05/27 00:36:34;;;;;;;23.45;11.90;;;10.70;94.50;;;;;;5095286;28;20035;-67
2021/05/27 00:39:00;;;;;;;23.35;10.38;;;10.70;94.50;;;;;;5095755;28;20032;-67
2021/05/27 00:41:26;;;;;;;18.08;10.63;;;10.60;94.30;;;;;;5094372;28;20028;-67
2021/05/27 00:43:51;;;;;;;19.67;10.73;;;10.70;94.20;;;;;;5095707;28;20412;-66
2021/05/27 00:46:17;;;;;;;24.55;11.98;;;10.70;94.20;;;;;;5095228;28;20100;-67
2021/05/27 00:48:59;;;;;;;24.83;11.38;;;10.70;94.20;;;;;;5095231;28;20059;-67
2021/05/27 00:51:27;;;;;;;28.10;12.75;;;10.60;94.20;;;;;;5094812;28;20043;-67
2021/05/27 00:53:52;;;;;;;20.67;10.95;;;10.60;94.30;;;;;;5094920;28;20051;-67
2021/05/27 00:56:18;;;;;;;22.10;11.85;;;10.60;94.30;;;;;;5093897;28;20028;-67
2021/05/27 00:58:45;;;;;;;22.75;12.73;;;10.60;94.30;;;;;;5095138;28;20030;-67
2021/05/27 01:01:10;;;;;;;33.40;13.35;;;10.60;94.30;;;;;;5093020;28;20028;-67
2021/05/27 01:03:36;;;;;;;26.25;13.18;;;10.60;94.40;;;;;;5095006;28;20024;-67
2021/05/27 01:06:03;;;;;;;22.85;12.25;;;10.60;94.40;;;;;;5092276;28;20020;-67
2021/05/27 01:08:29;;;;;;;26.48;13.57;;;10.60;94.30;;;;;;5094605;28;20032;-67
2021/05/27 01:10:56;;;;;;;25.88;11.43;;;10.60;94.30;;;;;;5094376;28;20095;-67
2021/05/27 01:13:22;;;;;;;23.83;11.57;;;10.50;94.40;;;;;;5094708;28;20551;-67
2021/05/27 01:15:48;;;;;;;27.38;13.15;;;10.50;94.40;;;;;;5094777;28;20369;-67
2021/05/27 01:18:16;;;;;;;22.92;12.18;;;10.50;94.40;;;;;;5095291;28;20024;-67
2021/05/27 01:20:44;;;;;;;25.17;12.38;;;10.50;94.40;;;;;;5092820;28;20426;-67
2021/05/27 01:23:10;;;;;;;25.77;10.70;;;10.50;94.40;;;;;;5092504;28;20039;-67
2021/05/27 01:25:40;;;;;;;26.20;12.98;;;10.50;94.40;;;;;;5093269;28;20032;-66
2021/05/27 01:28:06;;;;;;;24.08;10.77;;;10.30;94.50;;;;;;5094117;28;20095;-67
2021/05/27 01:30:32;;;;;;;24.00;10.30;;;10.20;94.80;;;;;;5093682;28;20147;-67
2021/05/27 01:32:57;;;;;;;29.17;12.25;;;10.20;95.00;;;;;;5093858;28;20032;-67
2021/05/27 01:35:25;;;;;;;30.23;12.13;;;10.10;95.20;;;;;;5093570;28;20443;-67
2021/05/27 01:37:51;;;;;;;26.10;11.27;;;10.10;95.30;;;;;;5094252;28;20024;-67
2021/05/27 01:40:20;;;;;;;25.27;11.00;;;10.00;95.40;;;;;;5093859;28;20020;-66
2021/05/27 01:42:45;;;;;;;22.95;10.60;;;10.00;95.30;;;;;;5093618;28;20024;-67
2021/05/27 01:45:11;;;;;;;23.63;9.60;;;10.10;95.20;;;;;;5094283;28;20031;-66
2021/05/27 01:47:37;;;;;;;22.60;9.73;;;10.10;95.10;;;;;;5093950;28;20028;-66
2021/05/27 01:50:05;;;;;;;22.77;9.80;;;10.00;95.00;;;;;;5094077;28;20133;-66
2021/05/27 01:52:30;;;;;;;24.50;10.25;;;10.00;95.00;;;;;;5091914;28;20028;-66
2021/05/27 01:54:56;;;;;;;25.38;9.73;;;10.00;95.00;;;;;;5091732;28;20095;-66
2021/05/27 01:57:21;;;;;;;23.92;10.63;;;10.00;95.00;;;;;;5108962;28;20020;-66
2021/05/27 01:59:47;;;;;;;18.83;9.35;;;9.90;95.10;;;;;;5093482;28;20504;-66
2021/05/27 02:02:12;;;;;;;20.98;10.07;;;9.90;95.20;;;;;;5092932;28;20103;-66
2021/05/27 02:04:38;;;;;;;31.48;12.05;;;9.80;95.30;;;;;;5092669;28;20531;-66
2021/05/27 02:07:12;;;;;;;26.40;11.15;;;9.80;95.40;;;;;;5094057;28;20024;-67
2021/05/27 02:09:37;;;;;;;27.30;10.75;;;9.80;95.50;;;;;;5093874;28;20031;-67
2021/05/27 02:12:03;;;;;;;21.83;9.95;;;9.80;95.50;;;;;;5092643;28;20032;-67
2021/05/27 02:14:29;;;;;;;29.75;10.55;;;9.80;95.60;;;;;;5092715;28;20020;-67
2021/05/27 02:16:55;;;;;;;24.40;10.25;;;9.70;95.70;;;;;;5092145;28;20069;-67
2021/05/27 02:19:21;;;;;;;21.20;10.13;;;9.70;95.80;;;;;;5091759;28;20086;-67
2021/05/27 02:21:47;;;;;;;26.92;10.70;;;9.70;95.80;;;;;;5093898;28;20122;-67
2021/05/27 02:24:12;;;;;;;26.10;9.57;;;9.70;95.80;;;;;;5092858;28;20541;-67
2021/05/27 02:26:38;;;;;;;24.25;10.02;;;9.70;95.80;;;;;;5091870;28;20063;-67
2021/05/27 02:29:05;;;;;;;23.45;10.48;;;9.70;95.80;;;;;;5093074;28;20027;-67
2021/05/27 02:31:31;;;;;;;26.40;10.93;;;9.70;95.90;;;;;;5093953;28;20546;-66
2021/05/27 02:33:57;;;;;;;18.05;8.82;;;9.70;95.80;;;;;;5079660;28;20379;-66
2021/05/27 02:36:24;;;;;;;36.30;11.75;;;9.70;95.80;;;;;;5092301;28;20035;-67
2021/05/27 02:38:50;;;;;;;20.90;10.13;;;9.70;95.90;;;;;;5093206;28;20439;-67
2021/05/27 02:41:16;;;;;;;22.33;10.20;;;9.70;95.90;;;;;;5092966;28;20020;-66
2021/05/27 02:43:42;;;;;;;25.42;11.32;;;9.70;95.90;;;;;;5091299;28;20031;-66
2021/05/27 02:46:07;;;;;;;35.55;10.60;;;9.60;96.00;;;;;;5081385;28;20044;-66
2021/05/27 02:48:33;;;;;;;29.10;10.18;;;9.60;96.00;;;;;;5090348;28;20039;-67
2021/05/27 02:51:02;;;;;;;25.27;9.68;;;9.60;96.30;;;;;;5092814;28;20046;-66
2021/05/27 02:53:28;;;;;;;27.17;9.75;;;9.60;96.10;;;;;;5092590;28;20028;-66
2021/05/27 02:55:54;;;;;;;30.73;11.57;;;9.50;96.10;;;;;;5090594;28;20137;-67
2021/05/27 02:58:19;;;;;;;24.98;9.82;;;9.60;96.10;;;;;;5091676;28;20016;-67
2021/05/27 03:00:45;;;;;;;26.55;11.40;;;9.50;96.10;;;;;;5092528;28;20327;-67
2021/05/27 03:03:11;;;;;;;30.55;13.00;;;9.50;96.20;;;;;;5092098;28;20510;-67
2021/05/27 03:05:37;;;;;;;30.63;10.88;;;9.50;96.20;;;;;;5092775;28;20055;-66
2021/05/27 03:08:03;;;;;;;28.20;10.80;;;9.50;96.30;;;;;;5092766;28;20065;-67
2021/05/27 03:10:28;;;;;;;25.42;10.25;;;9.50;96.30;;;;;;5092738;28;20048;-67
2021/05/27 03:12:54;;;;;;;32.05;11.63;;;9.50;96.30;;;;;;5092429;28;20044;-67
2021/05/27 03:15:20;;;;;;;34.15;12.60;;;9.50;96.40;;;;;;5092670;28;20040;-67
2021/05/27 03:17:46;;;;;;;24.10;10.05;;;9.50;96.40;;;;;;5092358;28;20488;-67
2021/05/27 03:20:12;;;;;;;29.73;11.25;;;9.50;96.40;;;;;;5092712;28;20093;-67
2021/05/27 03:22:38;;;;;;;22.30;11.30;;;9.60;96.70;;;;;;5091386;28;20539;-67
2021/05/27 03:25:05;;;;;;;33.92;11.90;;;9.50;96.40;;;;;;5091512;28;20036;-67
2021/05/27 03:27:30;;;;;;;29.60;11.45;;;9.50;96.40;;;;;;5091629;28;20028;-67
2021/05/27 03:29:56;;;;;;;36.80;11.10;;;9.50;96.40;;;;;;5092182;28;20477;-67
2021/05/27 03:32:21;;;;;;;21.00;9.57;;;9.50;96.50;;;;;;5091892;28;20028;-67
2021/05/27 03:34:47;;;;;;;33.05;11.52;;;9.50;96.50;;;;;;5091378;28;20032;-67
2021/05/27 03:37:12;;;;;;;35.97;10.82;;;9.50;96.50;;;;;;5092609;28;20057;-66
2021/05/27 03:39:38;;;;;;;35.00;12.00;;;9.50;96.50;;;;;;5090910;28;20482;-66
2021/05/27 03:42:04;;;;;;;38.65;11.68;;;9.50;96.50;;;;;;5091807;28;20024;-66
2021/05/27 03:44:30;;;;;;;37.70;13.18;;;9.50;96.60;;;;;;5091952;28;20028;-67
2021/05/27 03:46:55;;;;;;;33.25;11.70;;;9.50;96.60;;;;;;5092124;28;20062;-67
2021/05/27 03:49:21;;;;;;;28.73;11.88;;;9.50;96.60;;;;;;5092482;28;20066;-67
2021/05/27 03:51:47;;;;;;;34.85;12.18;;;9.50;96.60;;;;;;5092552;28;20134;-67
2021/05/27 03:54:12;;;;;;;30.70;10.85;;;9.50;96.70;;;;;;5084007;28;20070;-67
2021/05/27 03:56:38;;;;;;;26.33;10.68;;;9.50;96.70;;;;;;5091166;28;20031;-67
2021/05/27 04:01:53;;;;;;;29.25;10.30;;;9.50;96.70;;;;;;5085422;28;20035;-67
2021/05/27 04:09:33;;;;;;;27.52;10.85;;;9.50;96.70;;;;;;5092040;28;20028;-67
2021/05/27 04:14:43;;;;;;;30.17;10.40;;;9.50;96.80;;;;;;5092214;28;19919;-67
2021/05/27 04:17:10;;;;;;;27.40;9.82;;;9.50;96.80;;;;;;5090138;28;20032;-67
2021/05/27 04:19:35;;;;;;;25.92;10.55;;;9.50;96.80;;;;;;5089610;28;20025;-67
2021/05/27 04:22:01;;;;;;;29.77;11.20;;;9.50;96.80;;;;;;5095568;28;20035;-67
2021/05/27 04:24:27;;;;;;;34.30;11.73;;;9.50;96.80;;;;;;5094434;28;20473;-67
2021/05/27 04:26:52;;;;;;;29.42;12.05;;;9.50;96.80;;;;;;5085251;28;20055;-67
2021/05/27 04:29:18;;;;;;;29.13;11.18;;;9.50;96.80;;;;;;5095020;28;20107;-67
2021/05/27 04:31:44;;;;;;;28.77;11.82;;;9.50;97.10;;;;;;5093103;28;20028;-67
2021/05/27 04:34:10;;;;;;;24.48;9.65;;;9.50;96.80;;;;;;5094962;28;20446;-67
2021/05/27 04:36:35;;;;;;;21.50;10.35;;;9.50;96.80;;;;;;5094654;28;20099;-67
2021/05/27 04:39:01;;;;;;;30.08;11.60;;;9.50;96.80;;;;;;5094554;28;20023;-67
2021/05/27 04:41:26;;;;;;;31.35;11.20;;;9.60;96.80;;;;;;5093698;28;20497;-68
2021/05/27 04:43:57;;;;;;;27.33;9.70;;;9.60;96.80;;;;;;5092894;28;20036;-68
2021/05/27 04:46:22;;;;;;;30.55;12.10;;;9.60;96.80;;;;;;5084315;28;20025;-67
2021/05/27 04:48:48;;;;;;;29.48;11.65;;;9.60;96.80;;;;;;5085726;28;20035;-68
2021/05/27 04:51:14;;;;;;;34.35;11.32;;;9.50;96.80;;;;;;5085360;28;20114;-68
2021/05/27 04:53:39;;;;;;;35.95;12.05;;;9.50;96.80;;;;;;5086952;28;20024;-68
2021/05/27 04:56:05;;;;;;;28.80;11.15;;;9.60;96.80;;;;;;5083397;28;20031;-68
2021/05/27 04:58:31;;;;;;;25.25;11.07;;;9.60;96.80;;;;;;5085214;28;20044;-68
2021/05/27 05:00:58;;;;;;;24.88;10.55;;;9.60;96.80;;;;;;5085557;28;20044;-67
2021/05/27 05:03:23;;;;;;;27.63;10.05;;;9.60;96.80;;;;;;5083868;28;20063;-67
2021/05/27 05:05:49;;;;;;;28.77;10.90;;;9.60;96.80;;;;;;5078832;28;20393;-69
2021/05/27 05:08:15;;;;;;;22.35;9.40;;;9.60;96.90;;;;;;5079917;28;20042;-67
2021/05/27 05:10:42;;;;;;;28.40;9.90;;;9.60;96.90;;;;;;5079172;28;20111;-67
2021/05/27 05:13:08;;;;;;;30.27;9.65;;;9.60;96.90;;;;;;5082008;28;20043;-67
2021/05/27 05:15:36;;;;;;;32.67;10.40;;;9.60;96.90;;;;;;5080941;28;20028;-68
2021/05/27 05:18:10;;;;;;;23.05;8.85;;;9.60;96.90;;;;;;5098225;27;20024;-68
2021/05/27 05:20:38;;;;;;;26.77;8.70;;;9.60;96.90;;;;;;5082398;28;20066;-67
2021/05/27 05:23:04;;;;;;;21.77;9.05;;;9.60;96.90;;;;;;5082933;28;20036;-68
2021/05/27 05:25:32;;;;;;;29.02;8.88;;;9.70;96.90;;;;;;5081479;28;20035;-68
2021/05/27 05:27:58;;;;;;;33.80;10.50;;;9.70;96.80;;;;;;5087314;28;20505;-68
2021/05/27 05:30:26;;;;;;;27.00;8.68;;;9.70;96.80;;;;;;5092435;28;20061;-67
2021/05/27 05:32:51;;;;;;;29.05;9.65;;;9.70;96.80;;;;;;5090676;28;20028;-68
2021/05/27 05:35:18;;;;;;;33.80;9.07;;;9.70;96.90;;;;;;5092055;28;20534;-68
2021/05/27 05:37:44;;;;;;;28.80;9.70;;;9.80;96.90;;;;;;5097482;28;20394;-68
2021/05/27 05:40:12;;;;;;;28.00;9.57;;;9.80;96.90;;;;;;5100771;28;20023;-67
2021/05/27 05:42:41;;;;;;;25.67;8.90;;;9.80;96.90;;;;;;5092941;28;20032;-68
2021/05/27 05:45:09;;;;;;;32.00;9.93;;;9.80;96.80;;;;;;5099556;28;20485;-68
2021/05/27 05:47:35;;;;;;;28.13;8.38;;;9.90;96.80;;;;;;5092678;28;20115;-67
2021/05/27 05:50:02;;;;;;;27.13;9.00;;;9.90;96.80;;;;;;5090887;28;20154;-68
2021/05/27 05:52:29;;;;;;;22.60;8.52;;;9.90;96.80;;;;;;5097597;28;20032;-68
2021/05/27 05:54:54;;;;;;;21.77;8.32;;;9.90;96.70;;;;;;5086218;28;20024;-68
2021/05/27 05:57:20;;;;;;;21.13;8.35;;;9.90;96.70;;;;;;5079271;28;20031;-67
2021/05/27 05:59:45;;;;;;;25.05;8.30;;;9.80;96.70;;;;;;5079062;28;20115;-68
2021/05/27 06:02:11;;;;;;;25.48;8.38;;;9.90;96.70;;;;;;5075716;28;20631;-69
2021/05/27 06:04:37;;;;;;;21.83;8.77;;;9.90;96.70;;;;;;5078216;28;20054;-69
2021/05/27 06:07:03;;;;;;;28.23;9.02;;;9.90;96.70;;;;;;5075590;28;20035;-68
2021/05/27 06:09:29;;;;;;;19.98;7.53;;;9.90;96.70;;;;;;5073385;28;20031;-68
2021/05/27 06:11:55;;;;;;;25.40;7.90;;;9.90;96.70;;;;;;5078270;28;20032;-68
2021/05/27 06:14:21;;;;;;;23.77;8.02;;;9.90;96.80;;;;;;5074014;28;20089;-68
2021/05/27 06:16:47;;;;;;;23.73;8.57;;;9.90;96.70;;;;;;5088048;27;20028;-68
2021/05/27 06:19:13;;;;;;;21.40;7.10;;;10.00;96.70;;;;;;5071217;28;20123;-67
2021/05/27 06:21:38;;;;;;;21.48;8.35;;;9.90;96.70;;;;;;5088369;28;20027;-67
2021/05/27 06:24:06;;;;;;;23.73;7.75;;;10.00;96.70;;;;;;5087842;28;20093;-67
2021/05/27 06:26:33;;;;;;;18.60;6.47;;;10.00;96.70;;;;;;5090610;28;20024;-67
2021/05/27 06:28:58;;;;;;;25.30;7.72;;;9.90;97.00;;;;;;5089516;28;20023;-67
2021/05/27 06:31:24;;;;;;;30.45;9.25;;;10.00;96.70;;;;;;5092095;28;20044;-68
2021/05/27 06:33:49;;;;;;;20.85;8.23;;;9.90;96.70;;;;;;5086286;28;20119;-67
2021/05/27 06:36:15;;;;;;;17.27;7.80;;;10.00;96.70;;;;;;5104425;27;20024;-68
2021/05/27 06:38:41;;;;;;;23.70;6.85;;;9.90;96.70;;;;;;5101112;28;20051;-67
2021/05/27 06:41:07;;;;;;;18.70;7.15;;;9.90;96.70;;;;;;5093987;28;20027;-67
2021/05/27 06:43:34;;;;;;;18.80;6.72;;;9.90;96.70;;;;;;5094480;28;20536;-68
2021/05/27 06:45:59;;;;;;;21.48;7.75;;;10.00;96.70;;;;;;5096896;28;20435;-68
2021/05/27 06:48:25;;;;;;;19.25;7.07;;;10.00;96.80;;;;;;5094734;28;20024;-68
2021/05/27 06:50:51;;;;;;;18.48;7.63;;;10.00;96.70;;;;;;5094710;28;20036;-68
2021/05/27 06:53:17;;;;;;;21.30;8.30;;;9.90;96.70;;;;;;5098283;28;20073;-68
2021/05/27 06:55:45;;;;;;;18.02;6.50;;;9.90;96.80;;;;;;5094387;28;21934;-67
2021/05/27 06:58:11;;;;;;;20.30;8.20;;;9.90;96.90;;;;;;5096056;28;20049;-68
2021/05/27 07:00:40;;;;;;;20.75;7.57;;;9.90;96.90;;;;;;5085464;28;20456;-67
2021/05/27 07:03:07;;;;;;;18.92;7.07;;;9.90;96.90;;;;;;5088407;28;20704;-67
2021/05/27 07:05:35;;;;;;;18.88;7.90;;;9.90;96.90;;;;;;5090089;28;20038;-67
2021/05/27 07:08:02;;;;;;;21.02;8.27;;;9.90;96.90;;;;;;5094623;28;20119;-67
2021/05/27 07:10:31;;;;;;;21.92;8.13;;;10.00;96.90;;;;;;5089416;28;20367;-68
2021/05/27 07:13:00;;;;;;;28.23;9.25;;;10.00;97.00;;;;;;5091866;28;20040;-68
2021/05/27 07:15:27;;;;;;;24.05;9.15;;;10.00;97.00;;;;;;5093474;28;20047;-69
2021/05/27 07:17:53;;;;;;;32.08;8.88;;;10.00;97.00;;;;;;5090356;28;20020;-67
2021/05/27 07:20:22;;;;;;;22.52;7.82;;;10.00;97.00;;;;;;5091217;28;20019;-67
2021/05/27 07:22:48;;;;;;;20.20;6.75;;;10.10;97.10;;;;;;5083475;28;20061;-67
2021/05/27 07:25:14;;;;;;;21.05;7.55;;;10.10;97.00;;;;;;5087904;28;20469;-66
2021/05/27 07:27:39;;;;;;;27.35;7.45;;;10.10;96.90;;;;;;5087124;28;20038;-66
2021/05/27 07:30:07;;;;;;;18.95;7.90;;;10.10;97.10;;;;;;5090975;28;20031;-66
2021/05/27 07:32:33;;;;;;;19.65;7.53;;;10.00;96.80;;;;;;5091264;28;20031;-67
2021/05/27 07:34:59;;;;;;;26.27;6.70;;;10.00;97.20;;;;;;5087532;28;20016;-67
2021/05/27 07:37:26;;;;;;;21.02;6.97;;;10.00;96.90;;;;;;5089946;28;20023;-67
2021/05/27 07:39:51;;;;;;;23.70;7.07;;;10.00;96.90;;;;;;5088245;28;20073;-67
2021/05/27 07:42:17;;;;;;;21.15;7.85;;;10.00;96.90;;;;;;5090396;28;20029;-67
2021/05/27 07:44:43;;;;;;;19.35;6.55;;;10.00;96.90;;;;;;5092697;28;20497;-67
2021/05/27 07:47:08;;;;;;;23.77;7.20;;;10.00;96.90;;;;;;5094594;28;20024;-67
2021/05/27 07:49:34;;;;;;;24.33;7.15;;;10.00;96.90;;;;;;5091506;28;20043;-67
2021/05/27 07:52:01;;;;;;;21.52;6.45;;;10.00;97.00;;;;;;5096982;28;20020;-66
2021/05/27 07:54:27;;;;;;;23.35;7.15;;;10.00;97.00;;;;;;5090148;28;20039;-67
2021/05/27 07:56:53;;;;;;;20.23;7.38;;;10.10;97.00;;;;;;5099773;28;20097;-67
2021/05/27 07:59:18;;;;;;;18.50;7.28;;;10.10;97.00;;;;;;5092155;28;20048;-67
2021/05/27 08:01:44;;;;;;;23.63;6.93;;;10.10;97.00;;;;;;5086092;28;20028;-67
2021/05/27 08:04:10;;;;;;;23.45;7.38;;;10.10;96.90;;;;;;5086749;28;20062;-67
2021/05/27 08:06:37;;;;;;;19.27;6.45;;;10.20;96.90;;;;;;5088487;28;20043;-66
2021/05/27 08:09:07;;;;;;;22.67;6.55;;;10.20;96.90;;;;;;5089622;28;20123;-67
2021/05/27 08:11:33;;;;;;;17.75;6.28;;;10.20;96.90;;;;;;5089928;28;20039;-66
2021/05/27 08:13:59;;;;;;;23.40;7.18;;;10.20;96.90;;;;;;5088453;28;20139;-66
2021/05/27 08:16:24;;;;;;;20.95;6.80;;;10.20;96.90;;;;;;5084184;28;20942;-66
2021/05/27 08:18:50;;;;;;;19.88;6.30;;;10.20;96.80;;;;;;5087168;28;20462;-66
2021/05/27 08:21:17;;;;;;;19.42;6.65;;;10.30;96.80;;;;;;5088363;28;20031;-67
2021/05/27 08:23:43;;;;;;;19.67;5.53;;;10.30;96.70;;;;;;5090556;28;20029;-66
2021/05/27 08:26:08;;;;;;;18.20;5.68;;;10.20;96.80;;;;;;5090103;28;20023;-67
2021/05/27 08:28:34;;;;;;;24.35;6.88;;;10.30;96.90;;;;;;5090146;28;20537;-66
2021/05/27 08:31:00;;;;;;;14.35;5.80;;;10.30;96.80;;;;;;5083990;28;20031;-66
2021/05/27 08:33:25;;;;;;;19.80;6.43;;;10.30;96.70;;;;;;5087799;28;20366;-67
2021/05/27 08:35:51;;;;;;;26.05;6.55;;;10.30;96.60;;;;;;5095356;28;20117;-67
2021/05/27 08:38:16;;;;;;;23.77;7.38;;;10.30;96.70;;;;;;5102295;28;20035;-67
2021/05/27 08:40:42;;;;;;;21.25;6.78;;;10.40;96.80;;;;;;5095502;28;20024;-68
2021/05/27 08:43:08;;;;;;;22.63;7.35;;;10.30;96.70;;;;;;5100661;28;20046;-67
2021/05/27 08:45:37;;;;;;;21.88;7.35;;;10.30;96.70;;;;;;5104785;28;20039;-67
2021/05/27 08:48:03;;;;;;;24.60;7.47;;;10.40;96.80;;;;;;5100909;28;20026;-67
2021/05/27 08:50:35;;;;;;;23.45;6.32;;;10.40;96.70;;;;;;5101481;28;20147;-67
2021/05/27 08:53:00;;;;;;;24.73;7.10;;;10.50;96.80;;;;;;5097335;28;20689;-67
2021/05/27 08:55:26;;;;;;;12.80;6.38;;;10.50;96.70;;;;;;5102769;28;20020;-67
2021/05/27 08:57:52;;;;;;;17.20;5.97;;;10.50;96.80;;;;;;5110193;27;20036;-68
2021/05/27 09:00:18;;;;;;;14.73;4.57;;;10.50;96.60;;;;;;5084920;28;20036;-68
2021/05/27 09:03:00;;;;;;;22.50;6.10;;;10.60;96.60;;;;;;5087723;28;20507;-68
2021/05/27 09:05:31;;;;;;;20.38;5.32;;;10.60;96.70;;;;;;5087391;28;20058;-68
2021/05/27 09:07:58;;;;;;;21.95;6.97;;;10.60;96.70;;;;;;5088455;28;20028;-68
2021/05/27 09:10:44;;;;;;;21.42;7.32;;;10.60;96.70;;;;;;5085556;28;20028;-68
2021/05/27 09:13:14;;;;;;;15.35;5.57;;;10.70;96.70;;;;;;5087832;28;20040;-68
2021/05/27 09:15:41;;;;;;;17.20;6.57;;;10.70;96.70;;;;;;5087439;28;20108;-68
2021/05/27 09:18:07;;;;;;;20.58;6.97;;;10.70;96.60;;;;;;5104792;27;20538;-68
2021/05/27 09:20:34;;;;;;;20.98;5.95;;;10.70;96.70;;;;;;5085405;28;20039;-68
2021/05/27 09:23:17;;;;;;;16.75;6.20;;;10.80;96.70;;;;;;5088589;28;20478;-68
2021/05/27 09:25:45;;;;;;;18.05;6.03;;;10.80;96.60;;;;;;5101161;27;20441;-68
2021/05/27 09:28:18;;;;;;;14.15;5.05;;;10.80;96.50;;;;;;5086125;28;20059;-68
2021/05/27 09:30:54;;;;;;;15.50;5.22;;;10.80;96.50;;;;;;5087306;28;20529;-68
2021/05/27 09:33:41;;;;;;;20.80;5.68;;;10.80;96.40;;;;;;5088239;28;20032;-68
2021/05/27 09:36:19;;;;;;;10.52;4.60;;;10.70;96.40;;;;;;5086336;28;20024;-68
2021/05/27 09:38:47;;;;;;;11.02;4.53;;;10.60;96.40;;;;;;5096301;27;20382;-68
2021/05/27 09:41:22;;;;;;;22.80;5.85;;;10.60;96.60;;;;;;5092615;28;20035;-68
2021/05/27 09:44:02;;;;;;;16.58;5.25;;;10.60;96.60;;;;;;5098822;28;20416;-68
2021/05/27 09:46:28;;;;;;;13.45;5.50;;;10.60;96.60;;;;;;5099919;28;20031;-68
2021/05/27 09:49:08;;;;;;;18.05;5.20;;;10.60;96.50;;;;;;5091040;28;20409;-68
2021/05/27 09:51:35;;;;;;;13.77;4.75;;;10.60;96.50;;;;;;5088056;28;20024;-68
2021/05/27 09:54:00;;;;;;;27.20;5.53;;;10.60;96.40;;;;;;5100012;27;20027;-68
2021/05/27 09:56:38;;;;;;;12.55;4.72;;;10.60;96.40;;;;;;5082331;28;20527;-68
2021/05/27 09:59:04;;;;;;;16.63;4.88;;;10.70;96.30;;;;;;5086219;28;20110;-66
2021/05/27 10:01:30;;;;;;;19.77;5.15;;;10.70;96.30;;;;;;5085472;28;20041;-67
2021/05/27 10:04:11;;;;;;;13.45;4.80;;;10.80;96.10;;;;;;5085059;28;20027;-67
2021/05/27 10:06:37;;;;;;;24.08;5.65;;;10.90;96.10;;;;;;5099731;27;20470;-67
2021/05/27 10:09:04;;;;;;;17.05;5.05;;;11.00;95.90;;;;;;5080178;28;20138;-67
2021/05/27 10:11:30;;;;;;;18.48;5.55;;;11.00;95.80;;;;;;5086604;28;20083;-67
2021/05/27 10:13:57;;;;;;;18.27;5.82;;;11.10;96.00;;;;;;5092101;28;20077;-68
2021/05/27 10:16:23;;;;;;;26.38;6.45;;;11.30;95.90;;;;;;5103236;28;20115;-68
2021/05/27 10:18:51;;;;;;;15.55;4.30;;;11.40;95.80;;;;;;5090805;28;20111;-67
2021/05/27 10:21:17;;;;;;;14.43;5.13;;;11.40;95.40;;;;;;5089474;28;20024;-68
2021/05/27 10:23:43;;;;;;;18.88;5.15;;;11.50;95.00;;;;;;5092948;28;20090;-68
2021/05/27 10:26:09;;;;;;;18.75;5.65;;;11.40;94.70;;;;;;5090688;28;20024;-68
2021/05/27 10:28:35;;;;;;;13.77;4.45;;;11.40;94.70;;;;;;5094422;28;20032;-68
2021/05/27 10:31:02;;;;;;;21.10;7.10;;;11.40;94.60;;;;;;5093247;28;20020;-68
2021/05/27 10:33:37;;;;;;;28.10;7.28;;;11.50;94.60;;;;;;5102848;28;20035;-68
2021/05/27 10:36:03;;;;;;;22.50;6.15;;;11.40;94.40;;;;;;5090905;28;20051;-67
2021/05/27 10:41:05;;;;;;;18.13;5.57;;;11.30;94.50;;;;;;5090569;28;20032;-68
2021/05/27 10:43:32;;;;;;;14.43;5.30;;;11.30;94.60;;;;;;5092318;28;20103;-68
2021/05/27 10:46:05;;;;;;;18.95;6.30;;;11.20;94.30;;;;;;5091416;28;20023;-68
2021/05/27 10:48:42;;;;;;;18.50;5.55;;;11.20;94.50;;;;;;5090592;28;20598;-69
2021/05/27 10:51:14;;;;;;;21.13;6.00;;;11.30;94.70;;;;;;5092267;28;20036;-69
2021/05/27 10:53:42;;;;;;;18.90;5.75;;;11.60;94.40;;;;;;5088622;28;20454;-69
2021/05/27 10:56:15;;;;;;;16.67;5.07;;;11.70;94.30;;;;;;5091622;28;20032;-69
2021/05/27 10:58:54;;;;;;;17.05;5.68;;;11.80;94.10;;;;;;5090952;28;20083;-69
2021/05/27 11:01:42;;;;;;;19.73;6.13;;;11.70;93.40;;;;;;5091519;28;20040;-68
2021/05/27 11:04:34;;;;;;;21.65;6.50;;;11.60;93.30;;;;;;5091541;28;20032;-68
2021/05/27 11:07:11;;;;;;;23.40;6.55;;;11.50;93.40;;;;;;5090222;28;20031;-67
2021/05/27 11:09:38;;;;;;;23.20;6.82;;;11.40;93.60;;;;;;5092148;28;20039;-67
2021/05/27 11:12:18;;;;;;;22.55;6.53;;;11.30;93.50;;;;;;5093042;28;20050;-67
2021/05/27 11:15:05;;;;;;;22.77;5.97;;;11.30;93.60;;;;;;5089655;28;20486;-68
2021/05/27 11:17:31;;;;;;;22.17;7.45;;;11.20;93.60;;;;;;5089076;28;20425;-68
2021/05/27 11:20:08;;;;;;;23.30;7.82;;;11.20;93.70;;;;;;5090026;28;20016;-68
2021/05/27 11:27:41;;;;;;;30.73;8.13;;;11.10;94.10;;;;;;5091859;28;20032;-69
2021/05/27 11:30:17;;;;;;;24.33;7.78;;;11.10;94.30;;;;;;5099449;28;20016;-67
2021/05/27 11:32:50;;;;;;;24.02;7.10;;;11.10;94.20;;;;;;5079265;28;20110;-69
2021/05/27 11:35:17;;;;;;;21.02;7.03;;;11.10;94.40;;;;;;5096785;28;20020;-68
2021/05/27 11:37:44;;;;;;;29.63;6.88;;;11.20;94.60;;;;;;5081542;28;20032;-68
2021/05/27 11:40:12;;;;;;;23.02;6.15;;;11.30;94.40;;;;;;5090232;28;20082;-68
2021/05/27 11:42:39;;;;;;;24.05;6.95;;;11.20;94.40;;;;;;5091500;28;20119;-69
2021/05/27 11:45:09;;;;;;;24.95;7.30;;;11.20;94.60;;;;;;5089295;28;20026;-68
2021/05/27 11:47:35;;;;;;;21.70;7.45;;;11.20;95.00;;;;;;5100328;28;20485;-68
2021/05/27 11:50:08;;;;;;;22.30;7.47;;;11.30;95.00;;;;;;5093320;28;20038;-68
2021/05/27 11:52:34;;;;;;;16.60;6.60;;;11.40;94.60;;;;;;5095377;28;20469;-69
2021/05/27 11:54:59;;;;;;;21.13;6.15;;;11.50;94.60;;;;;;5096339;28;20066;-69
2021/05/27 11:57:42;;;;;;;17.17;6.07;;;11.70;94.60;;;;;;5091179;28;20428;-69
2021/05/27 12:00:14;;;;;;;14.32;5.97;;;11.80;94.10;;;;;;5090236;28;20035;-68
2021/05/27 12:02:42;;;;;;;24.58;7.97;;;11.70;93.90;;;;;;5089830;28;20040;-68
2021/05/27 12:05:17;;;;;;;25.50;6.72;;;11.70;94.20;;;;;;5106685;28;20020;-68
2021/05/27 12:07:59;;;;;;;17.40;6.82;;;11.80;94.30;;;;;;5095190;28;20428;-68
2021/05/27 12:10:26;;;;;;;14.57;5.22;;;11.90;94.30;;;;;;5098359;28;20028;-68
2021/05/27 12:12:52;;;;;;;15.13;5.90;;;11.90;93.80;;;;;;5108607;28;20036;-68
2021/05/27 12:15:21;;;;;;;14.32;5.70;;;11.80;93.60;;;;;;5096871;28;20081;-68
2021/05/27 12:17:47;;;;;;;16.73;5.57;;;11.90;94.00;;;;;;5096335;28;20443;-68
2021/05/27 12:20:17;;;;;;;16.45;5.95;;;12.10;94.20;;;;;;5097820;28;20059;-68
2021/05/27 12:22:44;;;;;;;11.35;3.97;;;12.30;94.00;;;;;;5091369;28;20420;-68
2021/05/27 12:25:12;;;;;;;11.55;4.10;;;12.50;93.90;;;;;;5091569;28;20054;-68
2021/05/27 12:27:46;;;;;;;15.77;4.18;;;12.70;93.60;;;;;;5096535;28;20069;-68
2021/05/27 12:30:32;;;;;;;14.77;4.50;;;13.00;93.40;;;;;;5093634;28;20028;-67
2021/05/27 12:32:59;;;;;;;8.73;4.28;;;13.30;93.30;;;;;;5090485;28;20035;-68
2021/05/27 12:35:31;;;;;;;16.77;4.60;;;13.40;92.00;;;;;;5109502;28;20063;-68
2021/05/27 12:37:59;;;;;;;13.95;4.45;;;13.30;91.90;;;;;;5096926;28;20093;-69
2021/05/27 12:40:33;;;;;;;11.60;4.43;;;13.20;92.20;;;;;;5094259;28;20405;-68
2021/05/27 12:43:01;;;;;;;9.88;3.33;;;13.10;92.00;;;;;;5096808;28;20142;-69
2021/05/27 12:45:30;;;;;;;9.60;3.95;;;12.90;92.00;;;;;;5095433;28;20032;-69
2021/05/27 12:48:22;;;;;;;14.38;4.70;;;12.70;91.70;;;;;;5093779;28;20039;-68
2021/05/27 12:50:59;;;;;;;19.17;5.60;;;12.50;92.20;;;;;;5082786;28;20040;-68
2021/05/27 12:53:32;;;;;;;11.25;3.67;;;12.50;92.50;;;;;;5100531;28;20077;-69
2021/05/27 12:56:18;;;;;;;11.20;3.88;;;12.40;92.50;;;;;;5110778;27;20024;-68
2021/05/27 12:58:49;;;;;;;14.88;5.13;;;12.20;92.80;;;;;;5093768;28;20123;-68